sensor_id;sensor_type;location;lat;lon;timestamp;P1;durP1;ratioP1;P2;durP2;ratioP2
10269;SDS011;70826;50.930;5.334;2023-09-19T00:01:12;6.18;;;5.57;;
10269;SDS011;70826;50.930;5.334;2023-09-19T00:03:39;6.13;;;5.60;;
10269;SDS011;70826;50.930;5.334;2023-09-19T00:06:06;7.13;;;6.18;;
10269;SDS011;70826;50.930;5.334;2023-09-19T00:08:37;7.72;;;5.70;;
10269;SDS011;70826;50.930;5.334;2023-09-19T00:11:03;6.47;;;5.72;;
10269;SDS011;70826;50.930;5.334;2023-09-19T00:13:29;6.30;;;5.68;;
10269;SDS011;70826;50.930;5.334;2023-09-19T00:15:56;5.63;;;5.00;;
10269;SDS011;70826;50.930;5.334;2023-09-19T00:18:24;5.50;;;4.90;;
10269;SDS011;70826;50.930;5.334;2023-09-19T00:20:53;5.38;;;4.88;;
10269;SDS011;70826;50.930;5.334;2023-09-19T00:23:24;6.75;;;5.13;;
10269;SDS011;70826;50.930;5.334;2023-09-19T00:25:50;6.22;;;5.63;;
10269;SDS011;70826;50.930;5.334;2023-09-19T00:28:22;6.68;;;5.07;;
10269;SDS011;70826;50.930;5.334;2023-09-19T00:30:53;4.70;;;2.60;;
10269;SDS011;70826;50.930;5.334;2023-09-19T00:33:24;4.60;;;2.80;;
10269;SDS011;70826;50.930;5.334;2023-09-19T00:35:50;4.80;;;3.10;;
10269;SDS011;70826;50.930;5.334;2023-09-19T00:38:20;4.00;;;3.20;;
10269;SDS011;70826;50.930;5.334;2023-09-19T00:40:48;4.03;;;2.78;;
10269;SDS011;70826;50.930;5.334;2023-09-19T00:43:16;4.88;;;3.03;;
10269;SDS011;70826;50.930;5.334;2023-09-19T00:45:45;4.38;;;3.00;;
10269;SDS011;70826;50.930;5.334;2023-09-19T00:48:16;5.60;;;3.13;;
10269;SDS011;70826;50.930;5.334;2023-09-19T00:50:42;4.57;;;3.22;;
10269;SDS011;70826;50.930;5.334;2023-09-19T00:53:13;5.53;;;3.25;;
10269;SDS011;70826;50.930;5.334;2023-09-19T00:55:47;5.45;;;3.08;;
10269;SDS011;70826;50.930;5.334;2023-09-19T00:58:14;6.40;;;3.38;;
10269;SDS011;70826;50.930;5.334;2023-09-19T01:00:42;4.10;;;2.97;;
10269;SDS011;70826;50.930;5.334;2023-09-19T01:03:16;4.97;;;3.17;;
10269;SDS011;70826;50.930;5.334;2023-09-19T01:05:44;4.03;;;2.80;;
10269;SDS011;70826;50.930;5.334;2023-09-19T01:08:12;4.72;;;3.28;;
10269;SDS011;70826;50.930;5.334;2023-09-19T01:11:13;5.35;;;3.28;;
10269;SDS011;70826;50.930;5.334;2023-09-19T01:27:06;4.50;;;3.13;;
10269;SDS011;70826;50.930;5.334;2023-09-19T01:29:50;4.70;;;3.30;;
10269;SDS011;70826;50.930;5.334;2023-09-19T01:32:16;4.90;;;3.47;;
10269;SDS011;70826;50.930;5.334;2023-09-19T01:34:52;4.45;;;3.22;;
10269;SDS011;70826;50.930;5.334;2023-09-19T01:37:31;5.35;;;3.53;;
10269;SDS011;70826;50.930;5.334;2023-09-19T01:40:13;5.95;;;3.30;;
10269;SDS011;70826;50.930;5.334;2023-09-19T01:48:25;6.35;;;3.53;;
10269;SDS011;70826;50.930;5.334;2023-09-19T01:50:59;5.22;;;3.53;;
10269;SDS011;70826;50.930;5.334;2023-09-19T01:56:16;6.68;;;3.65;;
10269;SDS011;70826;50.930;5.334;2023-09-19T01:58:59;4.78;;;3.50;;
10269;SDS011;70826;50.930;5.334;2023-09-19T02:01:31;4.70;;;3.40;;
10269;SDS011;70826;50.930;5.334;2023-09-19T02:04:00;4.75;;;3.55;;
10269;SDS011;70826;50.930;5.334;2023-09-19T02:06:26;4.93;;;3.28;;
10269;SDS011;70826;50.930;5.334;2023-09-19T02:08:54;5.38;;;3.70;;
10269;SDS011;70826;50.930;5.334;2023-09-19T02:11:24;4.32;;;3.53;;
10269;SDS011;70826;50.930;5.334;2023-09-19T02:13:51;4.72;;;3.63;;
10269;SDS011;70826;50.930;5.334;2023-09-19T02:16:22;4.85;;;3.00;;
10269;SDS011;70826;50.930;5.334;2023-09-19T02:18:52;5.57;;;3.25;;
10269;SDS011;70826;50.930;5.334;2023-09-19T02:21:18;4.10;;;3.25;;
10269;SDS011;70826;50.930;5.334;2023-09-19T02:23:46;6.82;;;3.22;;
10269;SDS011;70826;50.930;5.334;2023-09-19T02:26:16;4.63;;;3.45;;
10269;SDS011;70826;50.930;5.334;2023-09-19T02:28:46;5.55;;;3.10;;
10269;SDS011;70826;50.930;5.334;2023-09-19T02:31:13;4.93;;;3.20;;
10269;SDS011;70826;50.930;5.334;2023-09-19T02:33:44;5.30;;;3.30;;
10269;SDS011;70826;50.930;5.334;2023-09-19T02:36:12;4.95;;;3.58;;
10269;SDS011;70826;50.930;5.334;2023-09-19T02:38:42;5.55;;;3.70;;
10269;SDS011;70826;50.930;5.334;2023-09-19T02:41:07;5.18;;;3.40;;
10269;SDS011;70826;50.930;5.334;2023-09-19T02:43:38;5.25;;;3.40;;
10269;SDS011;70826;50.930;5.334;2023-09-19T02:46:08;5.75;;;3.38;;
10269;SDS011;70826;50.930;5.334;2023-09-19T02:48:36;5.68;;;3.15;;
10269;SDS011;70826;50.930;5.334;2023-09-19T02:51:06;5.80;;;3.60;;
10269;SDS011;70826;50.930;5.334;2023-09-19T02:53:36;5.10;;;3.17;;
10269;SDS011;70826;50.930;5.334;2023-09-19T02:56:04;4.30;;;3.13;;
10269;SDS011;70826;50.930;5.334;2023-09-19T02:58:30;5.38;;;3.03;;
10269;SDS011;70826;50.930;5.334;2023-09-19T03:01:07;4.50;;;2.97;;
10269;SDS011;70826;50.930;5.334;2023-09-19T03:03:38;4.70;;;2.80;;
10269;SDS011;70826;50.930;5.334;2023-09-19T03:06:07;4.85;;;3.40;;
10269;SDS011;70826;50.930;5.334;2023-09-19T03:08:36;6.85;;;3.08;;
10269;SDS011;70826;50.930;5.334;2023-09-19T03:11:04;4.20;;;2.92;;
10269;SDS011;70826;50.930;5.334;2023-09-19T03:13:36;4.47;;;3.03;;
10269;SDS011;70826;50.930;5.334;2023-09-19T03:16:07;7.03;;;2.80;;
10269;SDS011;70826;50.930;5.334;2023-09-19T03:18:35;5.95;;;3.05;;
10269;SDS011;70826;50.930;5.334;2023-09-19T03:21:04;7.32;;;3.05;;
10269;SDS011;70826;50.930;5.334;2023-09-19T03:23:32;3.97;;;2.92;;
10269;SDS011;70826;50.930;5.334;2023-09-19T03:26:03;6.80;;;3.10;;
10269;SDS011;70826;50.930;5.334;2023-09-19T03:28:34;5.20;;;3.08;;
10269;SDS011;70826;50.930;5.334;2023-09-19T03:31:03;4.70;;;3.03;;
10269;SDS011;70826;50.930;5.334;2023-09-19T03:33:32;5.88;;;3.20;;
10269;SDS011;70826;50.930;5.334;2023-09-19T03:36:08;3.65;;;2.75;;
10269;SDS011;70826;50.930;5.334;2023-09-19T03:38:34;5.82;;;2.83;;
10269;SDS011;70826;50.930;5.334;2023-09-19T03:41:00;3.38;;;2.67;;
10269;SDS011;70826;50.930;5.334;2023-09-19T03:43:31;5.25;;;2.92;;
10269;SDS011;70826;50.930;5.334;2023-09-19T03:46:02;4.88;;;3.13;;
10269;SDS011;70826;50.930;5.334;2023-09-19T03:48:32;4.22;;;3.20;;
10269;SDS011;70826;50.930;5.334;2023-09-19T03:50:58;5.47;;;3.40;;
10269;SDS011;70826;50.930;5.334;2023-09-19T03:53:27;5.47;;;3.13;;
10269;SDS011;70826;50.930;5.334;2023-09-19T03:55:52;6.22;;;3.03;;
10269;SDS011;70826;50.930;5.334;2023-09-19T03:58:18;5.75;;;3.03;;
10269;SDS011;70826;50.930;5.334;2023-09-19T04:00:46;4.75;;;3.40;;
10269;SDS011;70826;50.930;5.334;2023-09-19T04:03:16;6.25;;;3.00;;
10269;SDS011;70826;50.930;5.334;2023-09-19T04:05:46;6.25;;;3.15;;
10269;SDS011;70826;50.930;5.334;2023-09-19T04:08:17;4.00;;;2.75;;
10269;SDS011;70826;50.930;5.334;2023-09-19T04:10:43;5.40;;;2.88;;
10269;SDS011;70826;50.930;5.334;2023-09-19T04:13:11;5.63;;;3.00;;
10269;SDS011;70826;50.930;5.334;2023-09-19T04:15:36;7.60;;;2.88;;
10269;SDS011;70826;50.930;5.334;2023-09-19T04:18:02;5.63;;;3.20;;
10269;SDS011;70826;50.930;5.334;2023-09-19T04:20:29;6.28;;;3.47;;
10269;SDS011;70826;50.930;5.334;2023-09-19T04:22:57;6.20;;;3.58;;
10269;SDS011;70826;50.930;5.334;2023-09-19T04:25:25;5.57;;;3.53;;
10269;SDS011;70826;50.930;5.334;2023-09-19T04:27:53;6.90;;;3.60;;
10269;SDS011;70826;50.930;5.334;2023-09-19T04:30:24;5.05;;;3.40;;
10269;SDS011;70826;50.930;5.334;2023-09-19T04:32:49;5.10;;;3.70;;
10269;SDS011;70826;50.930;5.334;2023-09-19T04:35:15;4.93;;;3.40;;
10269;SDS011;70826;50.930;5.334;2023-09-19T04:37:43;5.50;;;3.70;;
10269;SDS011;70826;50.930;5.334;2023-09-19T04:40:11;6.45;;;3.90;;
10269;SDS011;70826;50.930;5.334;2023-09-19T04:42:42;4.93;;;3.88;;
10269;SDS011;70826;50.930;5.334;2023-09-19T04:45:08;4.68;;;3.88;;
10269;SDS011;70826;50.930;5.334;2023-09-19T04:47:39;5.45;;;3.70;;
10269;SDS011;70826;50.930;5.334;2023-09-19T04:50:06;4.55;;;3.90;;
10269;SDS011;70826;50.930;5.334;2023-09-19T04:52:42;5.50;;;3.53;;
10269;SDS011;70826;50.930;5.334;2023-09-19T04:57:41;4.45;;;3.70;;
10269;SDS011;70826;50.930;5.334;2023-09-19T05:00:07;5.97;;;3.95;;
10269;SDS011;70826;50.930;5.334;2023-09-19T05:02:37;5.10;;;3.40;;
10269;SDS011;70826;50.930;5.334;2023-09-19T05:05:07;5.05;;;3.75;;
10269;SDS011;70826;50.930;5.334;2023-09-19T05:07:36;6.85;;;3.90;;
10269;SDS011;70826;50.930;5.334;2023-09-19T05:10:08;5.13;;;3.67;;
10269;SDS011;70826;50.930;5.334;2023-09-19T05:12:37;6.10;;;3.63;;
10269;SDS011;70826;50.930;5.334;2023-09-19T05:15:06;4.20;;;3.63;;
10269;SDS011;70826;50.930;5.334;2023-09-19T05:17:33;5.20;;;3.63;;
10269;SDS011;70826;50.930;5.334;2023-09-19T05:19:59;6.47;;;3.70;;
10269;SDS011;70826;50.930;5.334;2023-09-19T05:22:49;5.28;;;3.65;;
10269;SDS011;70826;50.930;5.334;2023-09-19T05:25:26;4.55;;;3.58;;
10269;SDS011;70826;50.930;5.334;2023-09-19T05:27:54;4.97;;;3.90;;
10269;SDS011;70826;50.930;5.334;2023-09-19T05:30:24;4.68;;;3.53;;
10269;SDS011;70826;50.930;5.334;2023-09-19T05:32:54;4.63;;;3.47;;
10269;SDS011;70826;50.930;5.334;2023-09-19T05:35:21;4.97;;;3.67;;
10269;SDS011;70826;50.930;5.334;2023-09-19T05:37:54;5.18;;;3.78;;
10269;SDS011;70826;50.930;5.334;2023-09-19T05:40:21;6.38;;;3.70;;
10269;SDS011;70826;50.930;5.334;2023-09-19T05:42:48;5.70;;;3.45;;
10269;SDS011;70826;50.930;5.334;2023-09-19T05:45:19;5.93;;;3.78;;
10269;SDS011;70826;50.930;5.334;2023-09-19T05:47:50;4.10;;;3.03;;
10269;SDS011;70826;50.930;5.334;2023-09-19T05:50:31;4.45;;;2.60;;
10269;SDS011;70826;50.930;5.334;2023-09-19T05:52:57;5.43;;;2.38;;
10269;SDS011;70826;50.930;5.334;2023-09-19T05:55:23;5.50;;;2.83;;
10269;SDS011;70826;50.930;5.334;2023-09-19T05:57:54;3.72;;;2.55;;
10269;SDS011;70826;50.930;5.334;2023-09-19T06:00:23;5.88;;;2.60;;
10269;SDS011;70826;50.930;5.334;2023-09-19T06:02:52;4.22;;;2.50;;
10269;SDS011;70826;50.930;5.334;2023-09-19T06:05:21;5.75;;;2.72;;
10269;SDS011;70826;50.930;5.334;2023-09-19T06:07:54;5.13;;;2.72;;
10269;SDS011;70826;50.930;5.334;2023-09-19T06:10:25;6.50;;;2.80;;
10269;SDS011;70826;50.930;5.334;2023-09-19T06:12:56;7.63;;;2.78;;
10269;SDS011;70826;50.930;5.334;2023-09-19T06:15:24;5.53;;;2.75;;
10269;SDS011;70826;50.930;5.334;2023-09-19T06:17:53;4.15;;;2.70;;
10269;SDS011;70826;50.930;5.334;2023-09-19T06:20:26;5.50;;;2.70;;
10269;SDS011;70826;50.930;5.334;2023-09-19T06:22:53;5.97;;;2.88;;
10269;SDS011;70826;50.930;5.334;2023-09-19T06:25:19;6.18;;;2.95;;
10269;SDS011;70826;50.930;5.334;2023-09-19T06:27:48;5.15;;;3.22;;
10269;SDS011;70826;50.930;5.334;2023-09-19T06:30:19;5.20;;;3.15;;
10269;SDS011;70826;50.930;5.334;2023-09-19T06:32:48;3.63;;;2.90;;
10269;SDS011;70826;50.930;5.334;2023-09-19T06:35:16;5.32;;;2.80;;
10269;SDS011;70826;50.930;5.334;2023-09-19T06:37:46;5.13;;;2.90;;
10269;SDS011;70826;50.930;5.334;2023-09-19T06:40:13;4.80;;;2.80;;
10269;SDS011;70826;50.930;5.334;2023-09-19T06:42:42;3.33;;;2.83;;
10269;SDS011;70826;50.930;5.334;2023-09-19T06:45:14;4.47;;;3.10;;
10269;SDS011;70826;50.930;5.334;2023-09-19T06:47:47;3.88;;;2.88;;
10269;SDS011;70826;50.930;5.334;2023-09-19T06:50:21;4.50;;;2.90;;
10269;SDS011;70826;50.930;5.334;2023-09-19T06:52:51;5.57;;;3.08;;
10269;SDS011;70826;50.930;5.334;2023-09-19T06:55:22;6.25;;;2.95;;
10269;SDS011;70826;50.930;5.334;2023-09-19T06:57:53;6.28;;;2.90;;
10269;SDS011;70826;50.930;5.334;2023-09-19T07:00:22;5.38;;;3.00;;
10269;SDS011;70826;50.930;5.334;2023-09-19T07:05:29;4.05;;;2.88;;
10269;SDS011;70826;50.930;5.334;2023-09-19T07:07:58;5.07;;;3.15;;
10269;SDS011;70826;50.930;5.334;2023-09-19T07:10:25;4.65;;;2.88;;
10269;SDS011;70826;50.930;5.334;2023-09-19T07:13:04;6.32;;;5.63;;
10269;SDS011;70826;50.930;5.334;2023-09-19T07:15:34;5.93;;;4.78;;
10269;SDS011;70826;50.930;5.334;2023-09-19T07:18:15;5.35;;;4.85;;
10269;SDS011;70826;50.930;5.334;2023-09-19T07:20:42;9.48;;;5.00;;
10269;SDS011;70826;50.930;5.334;2023-09-19T07:23:11;5.43;;;4.47;;
10269;SDS011;70826;50.930;5.334;2023-09-19T07:25:45;5.82;;;5.03;;
10269;SDS011;70826;50.930;5.334;2023-09-19T07:28:11;5.72;;;5.22;;
10269;SDS011;70826;50.930;5.334;2023-09-19T07:30:40;6.60;;;5.35;;
10269;SDS011;70826;50.930;5.334;2023-09-19T07:33:09;5.53;;;5.03;;
10269;SDS011;70826;50.930;5.334;2023-09-19T07:35:37;8.38;;;6.07;;
10269;SDS011;70826;50.930;5.334;2023-09-19T07:38:06;6.18;;;5.43;;
10269;SDS011;70826;50.930;5.334;2023-09-19T07:40:36;6.20;;;5.45;;
10269;SDS011;70826;50.930;5.334;2023-09-19T07:43:06;5.63;;;5.13;;
10269;SDS011;70826;50.930;5.334;2023-09-19T07:45:32;6.90;;;5.78;;
10269;SDS011;70826;50.930;5.334;2023-09-19T07:48:01;6.32;;;5.80;;
10269;SDS011;70826;50.930;5.334;2023-09-19T07:50:32;6.53;;;5.95;;
10269;SDS011;70826;50.930;5.334;2023-09-19T07:53:02;7.32;;;6.20;;
10269;SDS011;70826;50.930;5.334;2023-09-19T07:55:29;6.22;;;5.53;;
10269;SDS011;70826;50.930;5.334;2023-09-19T07:57:55;6.50;;;5.93;;
10269;SDS011;70826;50.930;5.334;2023-09-19T08:00:21;6.03;;;5.50;;
10269;SDS011;70826;50.930;5.334;2023-09-19T08:02:52;6.30;;;5.70;;
10269;SDS011;70826;50.930;5.334;2023-09-19T08:05:20;6.90;;;6.20;;
10269;SDS011;70826;50.930;5.334;2023-09-19T08:07:46;7.18;;;5.82;;
10269;SDS011;70826;50.930;5.334;2023-09-19T08:10:15;6.13;;;5.63;;
10269;SDS011;70826;50.930;5.334;2023-09-19T08:12:45;6.38;;;5.43;;
10269;SDS011;70826;50.930;5.334;2023-09-19T08:15:21;7.93;;;5.38;;
10269;SDS011;70826;50.930;5.334;2023-09-19T08:17:51;6.55;;;5.22;;
10269;SDS011;70826;50.930;5.334;2023-09-19T08:20:17;6.07;;;4.60;;
10269;SDS011;70826;50.930;5.334;2023-09-19T08:22:50;5.47;;;4.45;;
10269;SDS011;70826;50.930;5.334;2023-09-19T08:25:20;5.20;;;4.70;;
10269;SDS011;70826;50.930;5.334;2023-09-19T08:27:47;4.72;;;4.20;;
10269;SDS011;70826;50.930;5.334;2023-09-19T08:30:16;6.45;;;4.53;;
10269;SDS011;70826;50.930;5.334;2023-09-19T08:32:48;6.47;;;4.40;;
10269;SDS011;70826;50.930;5.334;2023-09-19T08:35:23;4.18;;;3.50;;
10269;SDS011;70826;50.930;5.334;2023-09-19T08:37:49;4.60;;;3.90;;
10269;SDS011;70826;50.930;5.334;2023-09-19T08:40:22;5.82;;;3.85;;
10269;SDS011;70826;50.930;5.334;2023-09-19T08:42:56;5.32;;;3.38;;
10269;SDS011;70826;50.930;5.334;2023-09-19T08:45:28;3.67;;;3.03;;
10269;SDS011;70826;50.930;5.334;2023-09-19T08:50:30;4.70;;;2.90;;
10269;SDS011;70826;50.930;5.334;2023-09-19T08:52:56;3.95;;;3.08;;
10269;SDS011;70826;50.930;5.334;2023-09-19T08:55:33;4.15;;;2.90;;
10269;SDS011;70826;50.930;5.334;2023-09-19T08:58:03;4.63;;;3.00;;
10269;SDS011;70826;50.930;5.334;2023-09-19T09:00:35;4.50;;;3.40;;
10269;SDS011;70826;50.930;5.334;2023-09-19T09:03:01;5.45;;;3.17;;
10269;SDS011;70826;50.930;5.334;2023-09-19T09:05:32;6.32;;;3.00;;
10269;SDS011;70826;50.930;5.334;2023-09-19T09:08:04;3.88;;;2.90;;
10269;SDS011;70826;50.930;5.334;2023-09-19T09:10:33;4.90;;;3.25;;
10269;SDS011;70826;50.930;5.334;2023-09-19T09:12:59;5.00;;;3.38;;
10269;SDS011;70826;50.930;5.334;2023-09-19T09:15:28;7.28;;;3.55;;
10269;SDS011;70826;50.930;5.334;2023-09-19T09:18:00;4.55;;;3.30;;
10269;SDS011;70826;50.930;5.334;2023-09-19T09:20:30;5.53;;;3.50;;
10269;SDS011;70826;50.930;5.334;2023-09-19T09:22:56;5.78;;;3.45;;
10269;SDS011;70826;50.930;5.334;2023-09-19T09:25:46;5.47;;;3.65;;
10269;SDS011;70826;50.930;5.334;2023-09-19T09:28:27;5.15;;;3.53;;
10269;SDS011;70826;50.930;5.334;2023-09-19T09:30:58;5.20;;;3.58;;
10269;SDS011;70826;50.930;5.334;2023-09-19T09:33:37;4.78;;;3.33;;
10269;SDS011;70826;50.930;5.334;2023-09-19T09:36:06;5.18;;;3.30;;
10269;SDS011;70826;50.930;5.334;2023-09-19T09:38:44;4.63;;;3.40;;
10269;SDS011;70826;50.930;5.334;2023-09-19T09:41:11;6.85;;;3.70;;
10269;SDS011;70826;50.930;5.334;2023-09-19T09:43:41;5.30;;;3.70;;
10269;SDS011;70826;50.930;5.334;2023-09-19T09:46:16;4.68;;;3.50;;
10269;SDS011;70826;50.930;5.334;2023-09-19T09:48:55;6.07;;;3.80;;
10269;SDS011;70826;50.930;5.334;2023-09-19T09:54:30;5.43;;;3.90;;
10269;SDS011;70826;50.930;5.334;2023-09-19T09:57:03;4.32;;;3.72;;
10269;SDS011;70826;50.930;5.334;2023-09-19T10:02:25;5.97;;;3.85;;
10269;SDS011;70826;50.930;5.334;2023-09-19T10:05:10;6.75;;;3.90;;
10269;SDS011;70826;50.930;5.334;2023-09-19T10:07:50;4.72;;;3.65;;
10269;SDS011;70826;50.930;5.334;2023-09-19T10:13:23;5.35;;;3.70;;
10269;SDS011;70826;50.930;5.334;2023-09-19T10:15:56;6.03;;;3.92;;
10269;SDS011;70826;50.930;5.334;2023-09-19T10:18:35;7.25;;;4.20;;
10269;SDS011;70826;50.930;5.334;2023-09-19T10:21:04;4.28;;;3.88;;
10269;SDS011;70826;50.930;5.334;2023-09-19T10:23:31;5.47;;;4.22;;
10269;SDS011;70826;50.930;5.334;2023-09-19T10:26:04;6.30;;;3.97;;
10269;SDS011;70826;50.930;5.334;2023-09-19T10:28:31;6.40;;;3.83;;
10269;SDS011;70826;50.930;5.334;2023-09-19T10:30:58;4.45;;;3.80;;
10269;SDS011;70826;50.930;5.334;2023-09-19T10:33:28;5.30;;;3.65;;
10269;SDS011;70826;50.930;5.334;2023-09-19T10:36:03;5.45;;;3.40;;
10269;SDS011;70826;50.930;5.334;2023-09-19T10:38:30;5.65;;;3.45;;
10269;SDS011;70826;50.930;5.334;2023-09-19T10:40:58;6.03;;;3.40;;
10269;SDS011;70826;50.930;5.334;2023-09-19T10:43:26;4.82;;;3.10;;
10269;SDS011;70826;50.930;5.334;2023-09-19T10:46:00;4.40;;;3.00;;
10269;SDS011;70826;50.930;5.334;2023-09-19T10:48:35;7.43;;;2.88;;
10269;SDS011;70826;50.930;5.334;2023-09-19T10:51:09;6.05;;;2.78;;
10269;SDS011;70826;50.930;5.334;2023-09-19T10:53:50;5.18;;;3.03;;
10269;SDS011;70826;50.930;5.334;2023-09-19T10:56:23;4.00;;;2.88;;
10269;SDS011;70826;50.930;5.334;2023-09-19T11:01:44;5.05;;;2.85;;
10269;SDS011;70826;50.930;5.334;2023-09-19T11:15:04;4.95;;;3.05;;
10269;SDS011;70826;50.930;5.334;2023-09-19T11:17:37;4.70;;;2.95;;
10269;SDS011;70826;50.930;5.334;2023-09-19T11:30:43;4.20;;;2.90;;
10269;SDS011;70826;50.930;5.334;2023-09-19T11:43:46;7.57;;;3.47;;
10269;SDS011;70826;50.930;5.334;2023-09-19T11:46:12;6.40;;;3.70;;
10269;SDS011;70826;50.930;5.334;2023-09-19T11:48:41;4.40;;;3.35;;
10269;SDS011;70826;50.930;5.334;2023-09-19T11:51:13;5.15;;;3.63;;
10269;SDS011;70826;50.930;5.334;2023-09-19T11:54:00;4.70;;;3.33;;
10269;SDS011;70826;50.930;5.334;2023-09-19T11:56:30;3.83;;;3.15;;
10269;SDS011;70826;50.930;5.334;2023-09-19T11:58:57;3.65;;;3.25;;
10269;SDS011;70826;50.930;5.334;2023-09-19T12:01:31;4.80;;;3.00;;
10269;SDS011;70826;50.930;5.334;2023-09-19T12:04:01;3.85;;;2.95;;
10269;SDS011;70826;50.930;5.334;2023-09-19T12:06:32;4.32;;;2.92;;
10269;SDS011;70826;50.930;5.334;2023-09-19T12:09:06;4.35;;;2.70;;
10269;SDS011;70826;50.930;5.334;2023-09-19T12:11:42;2.90;;;2.38;;
10269;SDS011;70826;50.930;5.334;2023-09-19T12:14:24;3.28;;;2.13;;
10269;SDS011;70826;50.930;5.334;2023-09-19T12:16:57;3.70;;;2.42;;
10269;SDS011;70826;50.930;5.334;2023-09-19T12:19:27;3.70;;;2.35;;
10269;SDS011;70826;50.930;5.334;2023-09-19T12:21:54;3.30;;;2.45;;
10269;SDS011;70826;50.930;5.334;2023-09-19T12:24:22;3.88;;;2.35;;
10269;SDS011;70826;50.930;5.334;2023-09-19T12:26:54;2.90;;;2.60;;
10269;SDS011;70826;50.930;5.334;2023-09-19T12:29:26;9.48;;;3.35;;
10269;SDS011;70826;50.930;5.334;2023-09-19T12:31:56;4.43;;;3.33;;
10269;SDS011;70826;50.930;5.334;2023-09-19T12:34:31;6.57;;;2.72;;
10269;SDS011;70826;50.930;5.334;2023-09-19T12:39:47;6.60;;;2.05;;
10269;SDS011;70826;50.930;5.334;2023-09-19T12:42:24;2.42;;;1.75;;
10269;SDS011;70826;50.930;5.334;2023-09-19T12:44:57;3.88;;;1.83;;
10269;SDS011;70826;50.930;5.334;2023-09-19T12:47:26;1.80;;;1.65;;
10269;SDS011;70826;50.930;5.334;2023-09-19T12:50:10;2.20;;;1.73;;
10269;SDS011;70826;50.930;5.334;2023-09-19T12:58:11;2.40;;;1.90;;
10269;SDS011;70826;50.930;5.334;2023-09-19T13:00:38;3.45;;;1.90;;
10269;SDS011;70826;50.930;5.334;2023-09-19T13:05:55;2.75;;;1.88;;
10269;SDS011;70826;50.930;5.334;2023-09-19T13:08:40;2.80;;;1.92;;
10269;SDS011;70826;50.930;5.334;2023-09-19T13:11:15;3.55;;;1.85;;
10269;SDS011;70826;50.930;5.334;2023-09-19T13:16:19;3.55;;;2.00;;
10269;SDS011;70826;50.930;5.334;2023-09-19T13:24:21;2.10;;;1.90;;
10269;SDS011;70826;50.930;5.334;2023-09-19T13:26:50;2.25;;;2.05;;
10269;SDS011;70826;50.930;5.334;2023-09-19T13:29:16;2.67;;;1.88;;
10269;SDS011;70826;50.930;5.334;2023-09-19T13:31:52;3.58;;;1.90;;
10269;SDS011;70826;50.930;5.334;2023-09-19T13:34:18;2.05;;;1.65;;
10269;SDS011;70826;50.930;5.334;2023-09-19T13:36:45;2.33;;;1.85;;
10269;SDS011;70826;50.930;5.334;2023-09-19T13:39:13;2.22;;;2.03;;
10269;SDS011;70826;50.930;5.334;2023-09-19T13:41:44;2.20;;;1.95;;
10269;SDS011;70826;50.930;5.334;2023-09-19T13:44:11;4.53;;;2.20;;
10269;SDS011;70826;50.930;5.334;2023-09-19T13:46:37;2.95;;;1.80;;
10269;SDS011;70826;50.930;5.334;2023-09-19T13:49:03;2.20;;;2.00;;
10269;SDS011;70826;50.930;5.334;2023-09-19T13:51:30;2.85;;;1.92;;
10269;SDS011;70826;50.930;5.334;2023-09-19T13:53:56;3.30;;;2.13;;
10269;SDS011;70826;50.930;5.334;2023-09-19T13:56:22;2.53;;;2.10;;
10269;SDS011;70826;50.930;5.334;2023-09-19T13:58:48;3.83;;;2.20;;
10269;SDS011;70826;50.930;5.334;2023-09-19T14:01:13;3.38;;;2.30;;
10269;SDS011;70826;50.930;5.334;2023-09-19T14:03:39;2.58;;;2.15;;
10269;SDS011;70826;50.930;5.334;2023-09-19T14:06:16;2.42;;;2.20;;
10269;SDS011;70826;50.930;5.334;2023-09-19T14:08:42;2.33;;;1.95;;
10269;SDS011;70826;50.930;5.334;2023-09-19T14:11:11;2.35;;;1.88;;
10269;SDS011;70826;50.930;5.334;2023-09-19T14:13:40;3.10;;;2.20;;
10269;SDS011;70826;50.930;5.334;2023-09-19T14:16:11;2.10;;;1.90;;
10269;SDS011;70826;50.930;5.334;2023-09-19T14:18:37;2.10;;;1.90;;
10269;SDS011;70826;50.930;5.334;2023-09-19T14:21:06;3.28;;;2.20;;
10269;SDS011;70826;50.930;5.334;2023-09-19T14:23:37;2.97;;;1.95;;
10269;SDS011;70826;50.930;5.334;2023-09-19T14:26:08;3.05;;;2.10;;
10269;SDS011;70826;50.930;5.334;2023-09-19T14:28:34;3.72;;;1.90;;
10269;SDS011;70826;50.930;5.334;2023-09-19T14:31:09;3.65;;;1.92;;
10269;SDS011;70826;50.930;5.334;2023-09-19T14:33:40;3.05;;;2.03;;
10269;SDS011;70826;50.930;5.334;2023-09-19T14:36:09;2.65;;;1.77;;
10269;SDS011;70826;50.930;5.334;2023-09-19T14:38:38;2.20;;;1.80;;
10269;SDS011;70826;50.930;5.334;2023-09-19T14:41:04;2.08;;;1.73;;
10269;SDS011;70826;50.930;5.334;2023-09-19T14:43:33;2.50;;;1.90;;
10269;SDS011;70826;50.930;5.334;2023-09-19T14:46:05;2.70;;;1.92;;
10269;SDS011;70826;50.930;5.334;2023-09-19T14:48:34;2.58;;;1.67;;
10269;SDS011;70826;50.930;5.334;2023-09-19T14:51:03;2.50;;;1.55;;
10269;SDS011;70826;50.930;5.334;2023-09-19T14:53:37;2.38;;;1.65;;
10269;SDS011;70826;50.930;5.334;2023-09-19T14:56:08;1.83;;;1.73;;
10269;SDS011;70826;50.930;5.334;2023-09-19T14:58:41;3.90;;;1.80;;
10269;SDS011;70826;50.930;5.334;2023-09-19T15:01:12;3.08;;;1.80;;
10269;SDS011;70826;50.930;5.334;2023-09-19T15:03:39;2.25;;;1.73;;
10269;SDS011;70826;50.930;5.334;2023-09-19T15:06:08;1.85;;;1.52;;
10269;SDS011;70826;50.930;5.334;2023-09-19T15:08:36;2.85;;;1.83;;
10269;SDS011;70826;50.930;5.334;2023-09-19T15:11:11;1.95;;;1.70;;
10269;SDS011;70826;50.930;5.334;2023-09-19T15:13:37;2.40;;;1.63;;
10269;SDS011;70826;50.930;5.334;2023-09-19T15:16:07;1.92;;;1.67;;
10269;SDS011;70826;50.930;5.334;2023-09-19T15:21:03;3.20;;;1.83;;
10269;SDS011;70826;50.930;5.334;2023-09-19T15:23:35;2.95;;;1.65;;
10269;SDS011;70826;50.930;5.334;2023-09-19T15:26:05;2.75;;;1.80;;
10269;SDS011;70826;50.930;5.334;2023-09-19T15:28:31;2.08;;;1.83;;
10269;SDS011;70826;50.930;5.334;2023-09-19T15:33:31;3.25;;;1.83;;
10269;SDS011;70826;50.930;5.334;2023-09-19T15:36:12;2.78;;;1.80;;
10269;SDS011;70826;50.930;5.334;2023-09-19T15:41:25;4.20;;;3.00;;
10269;SDS011;70826;50.930;5.334;2023-09-19T15:44:02;5.60;;;2.22;;
10269;SDS011;70826;50.930;5.334;2023-09-19T15:46:28;6.63;;;2.10;;
10269;SDS011;70826;50.930;5.334;2023-09-19T15:49:05;5.78;;;1.98;;
10269;SDS011;70826;50.930;5.334;2023-09-19T15:51:32;5.88;;;2.25;;
10269;SDS011;70826;50.930;5.334;2023-09-19T15:53:58;3.25;;;1.95;;
10269;SDS011;70826;50.930;5.334;2023-09-19T15:56:27;3.15;;;2.03;;
10269;SDS011;70826;50.930;5.334;2023-09-19T15:58:54;5.78;;;2.20;;
10269;SDS011;70826;50.930;5.334;2023-09-19T16:01:20;3.88;;;2.15;;
10269;SDS011;70826;50.930;5.334;2023-09-19T16:03:48;2.22;;;2.00;;
10269;SDS011;70826;50.930;5.334;2023-09-19T16:06:18;3.97;;;2.25;;
10269;SDS011;70826;50.930;5.334;2023-09-19T16:08:47;3.72;;;2.28;;
10269;SDS011;70826;50.930;5.334;2023-09-19T16:11:16;3.17;;;1.95;;
10269;SDS011;70826;50.930;5.334;2023-09-19T16:13:43;4.22;;;2.15;;
10269;SDS011;70826;50.930;5.334;2023-09-19T16:16:11;3.90;;;2.05;;
10269;SDS011;70826;50.930;5.334;2023-09-19T16:18:51;3.38;;;1.92;;
10269;SDS011;70826;50.930;5.334;2023-09-19T16:21:22;2.10;;;1.90;;
10269;SDS011;70826;50.930;5.334;2023-09-19T16:23:51;2.45;;;1.85;;
10269;SDS011;70826;50.930;5.334;2023-09-19T16:26:20;2.97;;;1.95;;
10269;SDS011;70826;50.930;5.334;2023-09-19T16:28:51;3.10;;;1.88;;
10269;SDS011;70826;50.930;5.334;2023-09-19T16:31:18;3.25;;;2.08;;
10269;SDS011;70826;50.930;5.334;2023-09-19T16:33:46;2.80;;;2.00;;
10269;SDS011;70826;50.930;5.334;2023-09-19T16:36:14;2.65;;;2.00;;
10269;SDS011;70826;50.930;5.334;2023-09-19T16:38:42;3.22;;;1.83;;
10269;SDS011;70826;50.930;5.334;2023-09-19T16:41:11;2.83;;;1.98;;
10269;SDS011;70826;50.930;5.334;2023-09-19T16:43:38;4.28;;;2.05;;
10269;SDS011;70826;50.930;5.334;2023-09-19T16:46:05;5.53;;;2.00;;